createdAt,value
2017-12-05T00:00:41.190Z,50.67
2017-12-05T00:03:10.050Z,43.83
2017-12-05T00:05:38.446Z,50.37
2017-12-05T00:08:07.866Z,49.30
2017-12-05T00:10:36.973Z,55.57
2017-12-05T00:13:05.261Z,57.10
2017-12-05T00:15:34.725Z,49.20
2017-12-05T00:18:04.425Z,54.23
2017-12-05T00:20:32.598Z,51.43
2017-12-05T00:23:02.418Z,46.17
2017-12-05T00:25:31.543Z,64.53
2017-12-05T00:27:59.886Z,48.53
2017-12-05T00:30:28.947Z,53.53
2017-12-05T00:32:58.104Z,54.27
2017-12-05T00:35:27.386Z,45.90
2017-12-05T00:37:56.461Z,57.27
2017-12-05T00:40:25.238Z,51.93
2017-12-05T00:42:53.526Z,52.57
2017-12-05T00:45:22.671Z,52.77
2017-12-05T00:47:52.437Z,49.40
2017-12-05T00:50:20.710Z,56.50
2017-12-05T00:52:49.037Z,46.37
2017-12-05T00:55:17.363Z,54.13
2017-12-05T00:57:46.448Z,50.97
2017-12-05T01:00:14.830Z,59.30
2017-12-05T01:02:43.943Z,58.53
2017-12-05T01:05:13.368Z,53.50
2017-12-05T01:07:42.600Z,55.47
2017-12-05T01:10:11.714Z,58.53
2017-12-05T01:12:46.593Z,56.47
2017-12-05T01:15:15.062Z,53.73
2017-12-05T01:17:43.518Z,55.77
2017-12-05T01:20:11.811Z,56.03
2017-12-05T01:22:41.454Z,55.30
2017-12-05T01:25:09.735Z,54.77
2017-12-05T01:27:38.068Z,51.60
2017-12-05T01:30:06.402Z,55.60
2017-12-05T01:32:34.693Z,56.17
2017-12-05T01:35:04.138Z,58.97
2017-12-05T01:37:32.521Z,70.63
2017-12-05T01:40:00.895Z,54.73
2017-12-05T01:42:29.182Z,68.07
2017-12-05T01:44:59.111Z,56.63
2017-12-05T01:47:28.163Z,58.27
2017-12-05T01:49:56.541Z,58.37
2017-12-05T01:52:25.650Z,55.13
2017-12-05T01:54:54.044Z,56.40
2017-12-05T01:57:22.725Z,49.03
2017-12-05T01:59:51.078Z,54.00
2017-12-05T02:02:20.532Z,46.47
2017-12-05T02:04:49.210Z,48.30
2017-12-05T02:07:18.301Z,62.60
2017-12-05T02:09:47.357Z,49.13
2017-12-05T02:12:15.630Z,52.57
2017-12-05T02:14:43.973Z,50.23
2017-12-05T02:17:12.278Z,55.53
2017-12-05T02:19:40.631Z,51.27
2017-12-05T02:22:08.969Z,51.07
2017-12-05T02:24:38.027Z,47.60
2017-12-05T02:27:06.745Z,39.20
2017-12-05T02:29:35.127Z,41.73
2017-12-05T02:32:03.442Z,46.33
2017-12-05T02:34:31.731Z,46.87
2017-12-05T02:37:01.430Z,48.70
2017-12-05T02:39:29.989Z,45.53
2017-12-05T02:41:58.663Z,41.80
2017-12-05T02:44:27.037Z,49.10
2017-12-05T02:46:55.317Z,39.77
2017-12-05T02:49:23.598Z,40.27
2017-12-05T02:51:51.966Z,47.93
2017-12-05T02:54:21.462Z,50.73
2017-12-05T02:56:49.754Z,37.90
2017-12-05T02:59:18.176Z,31.33
2017-12-05T03:01:46.454Z,41.23
2017-12-05T03:04:14.742Z,40.03
2017-12-05T03:06:44.695Z,37.83
2017-12-05T03:09:14.166Z,45.87
2017-12-05T03:11:43.209Z,35.03
2017-12-05T03:14:12.314Z,45.70
2017-12-05T03:16:41.367Z,41.40
2017-12-05T03:19:10.789Z,37.00
2017-12-05T03:21:39.130Z,36.23
2017-12-05T03:24:07.414Z,33.07
2017-12-05T03:26:36.836Z,34.73
2017-12-05T03:29:05.204Z,31.10
2017-12-05T03:31:34.994Z,42.50
2017-12-05T03:34:03.278Z,42.60
2017-12-05T03:36:31.614Z,30.70
2017-12-05T03:38:59.910Z,31.27
2017-12-05T03:41:29.097Z,35.90
2017-12-05T03:43:58.227Z,31.67
2017-12-05T03:46:26.540Z,33.83
2017-12-05T03:48:54.818Z,27.30
2017-12-05T03:51:24.346Z,40.20
2017-12-05T03:53:53.018Z,23.43
2017-12-05T03:56:21.307Z,31.77
2017-12-05T03:58:51.162Z,36.10
2017-12-05T04:01:20.805Z,28.57
2017-12-05T04:03:48.971Z,37.13
2017-12-05T04:06:17.314Z,31.83
2017-12-05T04:08:46.736Z,28.23
2017-12-05T04:11:15.786Z,28.20
2017-12-05T04:13:44.905Z,39.53
2017-12-05T04:16:13.191Z,34.87
2017-12-05T04:18:41.477Z,42.30
2017-12-05T04:21:11.172Z,32.63
2017-12-05T04:23:40.480Z,28.07
2017-12-05T04:26:09.530Z,51.47
2017-12-05T04:28:38.266Z,38.07
2017-12-05T04:31:07.698Z,31.20
2017-12-05T04:33:37.745Z,40.30
2017-12-05T04:36:07.431Z,32.40
2017-12-05T04:38:36.105Z,32.53
2017-12-05T04:41:05.898Z,35.07
2017-12-05T04:43:34.253Z,35.07
2017-12-05T04:46:02.539Z,33.70
2017-12-05T04:48:30.818Z,32.63
2017-12-05T04:50:59.174Z,47.57
2017-12-05T04:53:27.463Z,40.13
2017-12-05T04:55:55.745Z,41.30
2017-12-05T04:58:24.115Z,47.23
2017-12-05T05:00:53.170Z,43.70
2017-12-05T05:03:22.222Z,45.47
2017-12-05T05:05:51.706Z,50.27
2017-12-05T05:08:19.991Z,54.23
2017-12-05T05:10:48.669Z,43.50
2017-12-05T05:13:17.776Z,39.03
2017-12-05T05:15:46.059Z,47.63
2017-12-05T05:18:14.736Z,59.63
2017-12-05T05:20:43.082Z,52.43
2017-12-05T05:23:12.116Z,50.33
2017-12-05T05:25:40.413Z,47.47
2017-12-05T05:28:08.763Z,55.30
2017-12-05T05:30:37.047Z,50.20
2017-12-05T05:33:05.330Z,70.20
2017-12-05T05:35:33.683Z,50.00
2017-12-05T05:38:01.979Z,63.70
2017-12-05T05:40:31.772Z,54.50
2017-12-05T05:43:00.111Z,56.93
2017-12-05T05:45:29.534Z,60.90
2017-12-05T05:47:57.819Z,62.87
2017-12-05T05:50:26.184Z,64.70
2017-12-05T05:52:55.599Z,55.97
2017-12-05T05:55:24.281Z,59.73
2017-12-05T05:57:52.631Z,55.70
2017-12-05T06:00:21.678Z,66.00
2017-12-05T06:02:51.099Z,56.07
2017-12-05T06:05:19.842Z,65.83
2017-12-05T06:07:48.527Z,56.87
2017-12-05T06:10:16.812Z,68.13
2017-12-05T06:12:45.146Z,63.53
2017-12-05T06:15:14.199Z,64.60
2017-12-05T06:17:42.475Z,74.43
2017-12-05T06:20:10.820Z,70.40
2017-12-05T06:22:39.876Z,68.23
2017-12-05T06:25:09.295Z,51.87
2017-12-05T06:27:39.002Z,59.30
2017-12-05T06:30:08.054Z,71.20
2017-12-05T06:32:37.693Z,69.53
2017-12-05T06:35:05.926Z,67.70
2017-12-05T06:37:34.226Z,77.50
2017-12-05T06:40:02.501Z,78.80
2017-12-05T06:42:31.615Z,75.63
2017-12-05T06:45:01.039Z,72.10
2017-12-05T06:47:29.841Z,74.03
2017-12-05T06:49:58.186Z,85.20
2017-12-05T06:52:26.476Z,74.27
2017-12-05T06:54:54.754Z,66.13
2017-12-05T06:57:23.085Z,73.13
2017-12-05T06:59:51.374Z,80.53
2017-12-05T07:02:19.662Z,67.10
2017-12-05T07:04:48.763Z,75.83
2017-12-05T07:07:17.055Z,67.47
2017-12-05T07:09:46.691Z,86.03
2017-12-05T07:12:16.414Z,92.17
2017-12-05T07:14:45.834Z,77.87
2017-12-05T07:17:14.250Z,74.53
2017-12-05T07:19:43.370Z,68.67
2017-12-05T07:22:11.644Z,85.70
2017-12-05T07:24:40.694Z,72.70
2017-12-05T07:27:09.797Z,75.17
2017-12-05T07:29:38.089Z,80.50
2017-12-05T07:32:06.371Z,82.60
2017-12-05T07:34:34.706Z,67.73
2017-12-05T07:37:03.000Z,66.30
2017-12-05T07:39:31.338Z,84.63
2017-12-05T07:42:00.410Z,89.67
2017-12-05T07:44:29.007Z,68.57
2017-12-05T07:46:57.289Z,86.80
2017-12-05T07:49:25.669Z,75.27
2017-12-05T07:51:55.112Z,81.53
2017-12-05T07:54:23.398Z,73.67
2017-12-05T07:56:52.880Z,81.40
2017-12-05T07:59:21.930Z,67.70
2017-12-05T08:01:50.238Z,67.37
2017-12-05T08:04:18.587Z,64.13
2017-12-05T08:06:47.260Z,65.27
2017-12-05T08:09:15.545Z,69.87
2017-12-05T08:11:43.926Z,68.20
2017-12-05T08:14:12.235Z,74.77
2017-12-05T08:16:40.527Z,65.20
2017-12-05T08:19:08.902Z,59.70
2017-12-05T08:21:37.983Z,63.30
2017-12-05T08:24:06.263Z,66.57
2017-12-05T08:26:34.609Z,65.20
2017-12-05T08:29:03.662Z,60.83
2017-12-05T08:31:31.950Z,71.77
2017-12-05T08:34:00.695Z,61.37
2017-12-05T08:36:29.743Z,68.40
2017-12-05T08:38:59.539Z,62.17
2017-12-05T08:41:27.915Z,65.50
2017-12-05T08:43:56.974Z,64.13
2017-12-05T08:46:25.266Z,63.57
2017-12-05T08:48:53.606Z,75.53
2017-12-05T08:51:21.900Z,66.37
2017-12-05T08:53:50.197Z,67.10
2017-12-05T08:56:18.542Z,69.63
2017-12-05T08:58:47.602Z,61.03
2017-12-05T09:01:15.879Z,61.03
2017-12-05T09:03:44.994Z,53.83
2017-12-05T09:06:14.042Z,58.67
2017-12-05T09:08:42.328Z,61.37
2017-12-05T09:11:10.667Z,68.03
2017-12-05T09:13:38.945Z,66.87
2017-12-05T09:16:07.234Z,66.83
2017-12-05T09:18:37.026Z,59.83
2017-12-05T09:21:06.095Z,63.13
2017-12-05T09:23:34.780Z,56.57
2017-12-05T09:26:03.899Z,64.30
2017-12-05T09:28:32.946Z,59.73
2017-12-05T09:31:01.234Z,61.80
2017-12-05T09:33:29.589Z,65.70
2017-12-05T09:35:59.369Z,55.47
2017-12-05T09:38:27.670Z,62.20
2017-12-05T09:40:56.796Z,61.37
2017-12-05T09:43:25.475Z,59.03
2017-12-05T09:45:53.786Z,61.93
2017-12-05T09:48:23.514Z,66.47
2017-12-05T09:50:52.439Z,59.27
2017-12-05T09:53:20.714Z,52.40
2017-12-05T09:55:49.054Z,61.90
2017-12-05T09:58:18.697Z,58.77
2017-12-05T10:00:48.213Z,59.63
2017-12-05T10:03:16.425Z,55.90
2017-12-05T10:05:45.475Z,59.37
2017-12-05T10:08:15.450Z,53.93
2017-12-05T10:10:43.801Z,52.70
2017-12-05T10:13:13.437Z,52.27
2017-12-05T10:15:42.739Z,58.00
2017-12-05T10:18:11.479Z,51.13
2017-12-05T10:20:39.778Z,60.07
2017-12-05T10:23:08.062Z,58.50
2017-12-05T10:25:37.534Z,49.60
2017-12-05T10:28:05.816Z,54.47
2017-12-05T10:30:34.106Z,45.57
2017-12-05T10:33:03.215Z,57.63
2017-12-05T10:35:32.626Z,58.57
2017-12-05T10:38:00.919Z,48.33
2017-12-05T10:40:29.257Z,51.90
2017-12-05T10:42:57.962Z,49.57
2017-12-05T10:45:27.019Z,50.20
2017-12-05T10:47:55.755Z,44.10
2017-12-05T10:50:24.037Z,58.27
2017-12-05T10:52:53.670Z,48.43
2017-12-05T10:55:23.943Z,49.23
2017-12-05T10:57:52.982Z,42.33
2017-12-05T11:00:21.266Z,44.17
2017-12-05T11:02:49.610Z,51.67
2017-12-05T11:05:17.910Z,43.77
2017-12-05T11:07:47.562Z,47.80
2017-12-05T11:10:16.542Z,43.90
2017-12-05T11:12:44.822Z,42.60
2017-12-05T11:15:13.108Z,41.20
2017-12-05T11:17:48.823Z,49.73
2017-12-05T11:20:17.102Z,44.03
2017-12-05T11:22:46.894Z,49.80
2017-12-05T11:25:15.701Z,44.27
2017-12-05T11:27:44.387Z,45.90
2017-12-05T11:30:12.666Z,47.70
2017-12-05T11:32:41.014Z,37.93
2017-12-05T11:35:10.062Z,48.33
2017-12-05T11:37:39.118Z,47.50
2017-12-05T11:40:07.470Z,46.57
2017-12-05T11:42:35.760Z,53.30
2017-12-05T11:45:05.393Z,42.63
2017-12-05T11:47:34.378Z,42.70
2017-12-05T11:50:03.428Z,47.60
2017-12-05T11:52:32.476Z,38.53
2017-12-05T11:55:00.815Z,36.80
2017-12-05T11:57:30.234Z,42.30
2017-12-05T11:59:58.591Z,35.83
2017-12-05T12:02:26.940Z,42.57
2017-12-05T12:04:55.216Z,41.10
2017-12-05T12:07:24.261Z,37.30
2017-12-05T12:09:54.421Z,42.57
2017-12-05T12:12:22.582Z,39.53
2017-12-05T12:14:50.867Z,39.23
2017-12-05T12:17:19.210Z,42.20
2017-12-05T12:19:48.646Z,39.00
2017-12-05T12:22:16.932Z,36.07
2017-12-05T12:24:45.265Z,36.50
2017-12-05T12:27:13.563Z,32.60
2017-12-05T12:29:41.861Z,32.23
2017-12-05T12:32:10.198Z,37.73
2017-12-05T12:34:39.838Z,45.83
2017-12-05T12:37:08.770Z,31.20
2017-12-05T12:39:38.267Z,32.47
2017-12-05T12:42:06.555Z,35.00
2017-12-05T12:44:34.843Z,32.17
2017-12-05T12:47:03.182Z,32.43
2017-12-05T12:49:31.863Z,42.37
2017-12-05T12:52:00.159Z,38.70
2017-12-05T12:54:29.076Z,36.83
2017-12-05T12:56:58.494Z,38.67
2017-12-05T12:59:26.843Z,33.93
2017-12-05T13:01:56.710Z,38.83
2017-12-05T13:04:25.003Z,30.87
2017-12-05T13:06:53.290Z,39.43
2017-12-05T13:09:22.989Z,33.53
2017-12-05T13:11:51.146Z,37.60
2017-12-05T13:14:19.439Z,36.67
2017-12-05T13:16:47.778Z,37.07
2017-12-05T13:19:16.059Z,32.37
2017-12-05T13:21:44.348Z,31.23
2017-12-05T13:24:13.079Z,39.20
2017-12-05T13:26:42.506Z,40.20
2017-12-05T13:29:10.790Z,38.17
2017-12-05T13:31:39.129Z,37.13
2017-12-05T13:34:08.194Z,32.20
2017-12-05T13:36:37.250Z,35.97
2017-12-05T13:39:05.614Z,36.37
2017-12-05T13:41:34.291Z,31.67
2017-12-05T13:44:02.579Z,34.97
2017-12-05T13:46:30.951Z,36.10
2017-12-05T13:48:59.238Z,31.87
2017-12-05T13:51:28.887Z,32.73
2017-12-05T13:53:57.895Z,31.53
2017-12-05T13:56:28.173Z,36.40
2017-12-05T13:58:57.023Z,35.20
2017-12-05T14:01:25.935Z,32.77
2017-12-05T14:03:54.234Z,34.53
2017-12-05T14:06:33.951Z,30.40
2017-12-05T14:09:02.229Z,34.63
2017-12-05T14:11:30.510Z,28.53
2017-12-05T14:13:58.850Z,31.37
2017-12-05T14:16:27.140Z,29.20
2017-12-05T14:18:56.185Z,28.33
2017-12-05T14:21:24.527Z,26.80
2017-12-05T14:23:52.817Z,32.30
2017-12-05T14:26:21.866Z,32.47
2017-12-05T14:28:50.611Z,29.00
2017-12-05T14:31:18.898Z,26.97
2017-12-05T14:33:47.178Z,24.40
2017-12-05T14:36:15.510Z,24.03
2017-12-05T14:38:43.793Z,30.27
2017-12-05T14:41:12.071Z,34.13
2017-12-05T14:43:40.446Z,25.27
2017-12-05T14:46:09.868Z,26.50
2017-12-05T14:48:38.155Z,25.20
2017-12-05T14:51:06.647Z,32.53
2017-12-05T14:53:35.693Z,30.00
2017-12-05T14:56:03.986Z,26.80
2017-12-05T14:58:32.515Z,32.93
2017-12-05T15:01:01.195Z,27.83
2017-12-05T15:03:29.940Z,29.17
2017-12-05T15:05:59.063Z,27.93
2017-12-05T15:08:28.171Z,23.43
2017-12-05T15:10:56.466Z,26.30
2017-12-05T15:15:59.013Z,24.60
2017-12-05T15:18:27.296Z,28.00
2017-12-05T15:20:55.578Z,26.10
2017-12-05T15:23:24.526Z,26.50
2017-12-05T15:25:53.946Z,26.67
2017-12-05T15:28:22.234Z,26.27
2017-12-05T15:30:51.643Z,29.33
2017-12-05T15:33:20.322Z,30.13
2017-12-05T15:35:48.598Z,31.33
2017-12-05T15:38:16.940Z,26.70
2017-12-05T15:40:45.617Z,26.80
2017-12-05T15:43:13.899Z,28.83
2017-12-05T15:45:42.239Z,34.20
2017-12-05T15:48:10.522Z,25.30
2017-12-05T15:50:38.816Z,27.90
2017-12-05T15:53:07.142Z,28.37
2017-12-05T15:55:35.426Z,27.70
2017-12-05T15:58:03.710Z,26.97
2017-12-05T16:00:32.829Z,23.07
2017-12-05T16:03:01.113Z,30.60
2017-12-05T16:05:29.511Z,29.93
2017-12-05T16:07:59.362Z,27.70
2017-12-05T16:10:27.643Z,26.13
2017-12-05T16:12:55.931Z,25.83
2017-12-05T16:15:25.402Z,29.23
2017-12-05T16:17:54.464Z,26.07
2017-12-05T16:20:22.751Z,26.80
2017-12-05T16:22:53.019Z,27.93
2017-12-05T16:25:22.528Z,25.00
2017-12-05T16:27:51.849Z,31.13
2017-12-05T16:30:20.181Z,21.17
2017-12-05T16:32:48.629Z,26.23
2017-12-05T16:35:16.957Z,21.60
2017-12-05T16:37:45.376Z,25.07
2017-12-05T16:40:15.173Z,25.30
2017-12-05T16:42:43.454Z,24.03
2017-12-05T16:45:11.907Z,25.13
2017-12-05T16:47:40.959Z,22.47
2017-12-05T16:50:09.524Z,26.57
2017-12-05T16:52:37.861Z,22.90
2017-12-05T16:55:06.145Z,23.90
2017-12-05T16:57:36.110Z,26.77
2017-12-05T17:00:04.454Z,21.73
2017-12-05T17:02:32.938Z,25.80
2017-12-05T17:05:01.715Z,25.50
2017-12-05T17:07:30.172Z,24.23
2017-12-05T17:09:58.455Z,20.03
2017-12-05T17:12:28.253Z,22.70
2017-12-05T17:14:56.700Z,20.27
2017-12-05T17:17:26.521Z,20.53
2017-12-05T17:19:54.797Z,23.23
2017-12-05T17:22:23.138Z,23.77
2017-12-05T17:24:52.639Z,22.50
2017-12-05T17:27:21.086Z,20.73
2017-12-05T17:29:50.817Z,20.90
2017-12-05T17:32:19.374Z,22.93
2017-12-05T17:34:47.658Z,23.00
2017-12-05T17:37:16.018Z,19.00
2017-12-05T17:39:44.290Z,24.10
2017-12-05T17:42:14.487Z,28.60
2017-12-05T17:44:43.490Z,18.80
2017-12-05T17:47:12.542Z,23.23
2017-12-05T17:49:41.587Z,35.07
2017-12-05T17:52:10.130Z,21.27
2017-12-05T17:54:40.074Z,21.17
2017-12-05T17:57:09.743Z,24.77
2017-12-05T17:59:38.785Z,23.53
2017-12-05T18:02:07.135Z,23.43
2017-12-05T18:04:36.241Z,21.03
2017-12-05T18:07:04.602Z,27.17
2017-12-05T18:09:32.983Z,19.47
2017-12-05T18:12:01.415Z,26.97
2017-12-05T18:14:29.835Z,25.43
2017-12-05T18:16:58.294Z,22.60
2017-12-05T18:19:26.984Z,20.07
2017-12-05T18:21:55.410Z,21.23
2017-12-05T18:24:23.823Z,22.33
2017-12-05T18:26:52.622Z,21.07
2017-12-05T18:29:21.433Z,23.13
2017-12-05T18:31:49.795Z,26.07
2017-12-05T18:34:18.090Z,23.90
2017-12-05T18:36:46.446Z,24.07
2017-12-05T18:39:15.666Z,23.20
2017-12-05T18:41:44.008Z,23.60
2017-12-05T18:44:12.350Z,21.90
2017-12-05T18:46:40.771Z,29.13
2017-12-05T18:49:09.078Z,24.17
2017-12-05T18:51:37.439Z,20.97
2017-12-05T18:54:05.799Z,22.90
2017-12-05T18:56:34.322Z,19.37
2017-12-05T18:59:03.464Z,20.93
2017-12-05T19:01:31.891Z,18.17
2017-12-05T19:04:00.184Z,19.60
2017-12-05T19:06:29.029Z,23.60
2017-12-05T19:08:57.351Z,19.93
2017-12-05T19:11:27.825Z,32.90
2017-12-05T19:13:56.058Z,24.10
2017-12-05T19:16:24.369Z,20.23
2017-12-05T19:18:53.447Z,17.60
2017-12-05T19:21:22.706Z,17.20
2017-12-05T19:23:51.835Z,21.40
2017-12-05T19:26:20.119Z,22.13
2017-12-05T19:28:49.250Z,20.37
2017-12-05T19:31:18.413Z,22.17
2017-12-05T19:33:48.085Z,18.83
2017-12-05T19:36:16.387Z,20.27
2017-12-05T19:38:45.502Z,18.10
2017-12-05T19:41:13.783Z,22.50
2017-12-05T19:43:42.926Z,19.70
2017-12-05T19:46:12.561Z,19.70
2017-12-05T19:48:40.732Z,19.47
2017-12-05T19:51:09.207Z,22.63
2017-12-05T19:53:37.503Z,17.50
2017-12-05T19:56:05.855Z,19.27
2017-12-05T19:58:34.738Z,17.00
2017-12-05T20:01:04.315Z,26.63
2017-12-05T20:03:32.646Z,16.00
2017-12-05T20:06:01.807Z,15.50
2017-12-05T20:08:31.528Z,16.07
2017-12-05T20:11:00.219Z,17.03
2017-12-05T20:13:29.426Z,15.53
2017-12-05T20:15:58.591Z,17.67
2017-12-05T20:18:27.759Z,15.47
2017-12-05T20:20:56.113Z,16.07
2017-12-05T20:23:24.526Z,21.50
2017-12-05T20:25:53.584Z,17.40
2017-12-05T20:30:57.187Z,18.40
2017-12-05T20:33:26.615Z,15.20
2017-12-05T20:35:55.126Z,16.30
2017-12-05T20:38:23.532Z,19.73
2017-12-05T20:40:51.955Z,17.17
2017-12-05T20:43:21.386Z,17.87
2017-12-05T20:45:49.789Z,16.60
2017-12-05T20:48:19.722Z,19.10
2017-12-05T20:50:47.783Z,16.17
2017-12-05T20:53:15.934Z,16.43
2017-12-05T20:55:44.409Z,16.80
2017-12-05T20:58:12.498Z,18.10
2017-12-05T21:00:40.672Z,19.80
2017-12-05T21:03:09.147Z,17.13
2017-12-05T21:05:37.189Z,17.20
2017-12-05T21:08:05.790Z,16.83
2017-12-05T21:10:33.990Z,16.17
2017-12-05T21:13:02.035Z,17.93
2017-12-05T21:15:31.072Z,14.50
2017-12-05T21:17:59.882Z,16.77
2017-12-05T21:20:29.296Z,16.20
2017-12-05T21:22:59.036Z,18.00
2017-12-05T21:25:27.126Z,17.10
2017-12-05T21:27:55.182Z,16.60
2017-12-05T21:30:23.798Z,15.73
2017-12-05T21:32:51.833Z,16.00
2017-12-05T21:35:19.925Z,17.10
2017-12-05T21:37:48.098Z,18.50
2017-12-05T21:40:17.618Z,16.27
2017-12-05T21:42:46.921Z,18.47
2017-12-05T21:45:14.942Z,23.73
2017-12-05T21:47:44.086Z,16.00
2017-12-05T21:50:13.479Z,17.90
2017-12-05T21:52:41.501Z,16.67
2017-12-05T21:55:09.569Z,18.40
2017-12-05T21:57:38.931Z,18.03
2017-12-05T22:00:07.041Z,17.60
2017-12-05T22:02:35.086Z,18.37
2017-12-05T22:05:03.138Z,17.03
2017-12-05T22:07:31.254Z,17.00
2017-12-05T22:10:00.378Z,17.90
2017-12-05T22:12:29.826Z,19.70
2017-12-05T22:14:58.207Z,18.57
2017-12-05T22:17:26.668Z,18.80
2017-12-05T22:19:56.146Z,19.70
2017-12-05T22:22:24.553Z,20.33
2017-12-05T22:24:52.826Z,18.40
2017-12-05T22:27:22.461Z,25.73
2017-12-05T22:29:52.218Z,19.80
2017-12-05T22:32:20.503Z,18.13
2017-12-05T22:34:49.554Z,18.33
2017-12-05T22:37:18.652Z,18.17
2017-12-05T22:39:48.441Z,20.43
2017-12-05T22:42:16.727Z,19.10
2017-12-05T22:44:45.087Z,19.80
2017-12-05T22:47:14.879Z,18.63
2017-12-05T22:49:43.163Z,19.47
2017-12-05T22:52:11.503Z,18.77
2017-12-05T22:54:39.793Z,20.00
2017-12-05T22:57:08.081Z,20.20
2017-12-05T22:59:36.418Z,18.23
2017-12-05T23:02:04.701Z,19.53
2017-12-05T23:04:32.997Z,19.33
2017-12-05T23:07:01.816Z,18.20
2017-12-05T23:09:30.060Z,20.03
2017-12-05T23:11:59.106Z,18.27
2017-12-05T23:14:27.778Z,20.80
2017-12-05T23:16:56.830Z,17.57
2017-12-05T23:19:26.509Z,19.13
2017-12-05T23:21:54.735Z,17.90
2017-12-05T23:24:23.795Z,20.20
2017-12-05T23:26:52.853Z,19.20
2017-12-05T23:29:21.194Z,16.70
2017-12-05T23:31:49.482Z,16.47
2017-12-05T23:34:19.270Z,22.60
2017-12-05T23:36:47.622Z,16.63
2017-12-05T23:39:16.665Z,17.30
2017-12-05T23:41:44.956Z,17.77
2017-12-05T23:44:13.698Z,17.23
2017-12-05T23:46:42.378Z,20.53
2017-12-05T23:49:10.670Z,19.83
2017-12-05T23:51:40.838Z,17.33
2017-12-05T23:54:09.124Z,16.70
2017-12-05T23:56:38.182Z,19.03
2017-12-05T23:59:06.522Z,15.53
